Time;durP1;ratioP1;P1;durP2;ratioP2;P2;SDS_P1;SDS_P2;PMS_P1;PMS_P2;Temp;Humidity;BMP_temperature;BMP_pressure;BME280_temperature;BME280_humidity;BME280_pressure;Samples;Min_cycle;Max_cycle;Signal;HPM_P1;HPM_P2
2023/01/21 00:01:08;;;;;;;33.10;23.35;;;-1.10;99.90;;;;;;5033186;28;20112;-51
2023/01/21 00:03:34;;;;;;;39.38;25.40;;;-1.20;99.90;;;;;;5031906;28;20033;-54
2023/01/21 00:06:00;;;;;;;38.85;26.23;;;-1.10;99.90;;;;;;5032990;28;20469;-53
2023/01/21 00:08:26;;;;;;;38.33;25.33;;;-1.10;99.90;;;;;;5033155;28;20069;-53
2023/01/21 00:10:52;;;;;;;41.13;26.00;;;-1.10;99.90;;;;;;5032914;28;20025;-53
2023/01/21 00:13:17;;;;;;;37.90;25.83;;;-1.20;99.90;;;;;;5032847;28;20392;-56
2023/01/21 00:15:44;;;;;;;37.92;24.40;;;-1.20;99.90;;;;;;5032804;28;20033;-50
2023/01/21 00:18:09;;;;;;;34.17;24.15;;;-1.20;99.90;;;;;;5032823;28;20115;-54
2023/01/21 00:20:36;;;;;;;35.38;25.13;;;-1.30;99.90;;;;;;5032855;28;20461;-55
2023/01/21 00:23:01;;;;;;;36.10;24.08;;;-1.20;99.90;;;;;;5031263;28;20026;-54
2023/01/21 00:25:27;;;;;;;41.05;27.00;;;-1.20;99.90;;;;;;5032407;28;20030;-54
2023/01/21 00:27:53;;;;;;;39.95;26.10;;;-1.30;99.90;;;;;;5032423;28;20040;-51
2023/01/21 00:30:19;;;;;;;36.97;26.27;;;-1.30;99.90;;;;;;5031321;28;20013;-54
2023/01/21 00:32:44;;;;;;;38.20;26.42;;;-1.30;99.90;;;;;;5032671;28;20420;-54
2023/01/21 00:35:10;;;;;;;35.67;24.38;;;-1.30;99.90;;;;;;5032505;28;20033;-55
2023/01/21 00:37:36;;;;;;;38.17;24.80;;;-1.30;99.90;;;;;;5031138;28;20105;-55
2023/01/21 00:40:04;;;;;;;46.95;27.33;;;-1.30;99.90;;;;;;5032001;28;20428;-52
2023/01/21 00:42:30;;;;;;;41.28;28.05;;;-1.30;99.90;;;;;;5031678;28;20053;-56
2023/01/21 00:44:58;;;;;;;44.30;28.05;;;-1.30;99.90;;;;;;5031697;28;20059;-54
2023/01/21 00:47:24;;;;;;;39.88;27.92;;;-1.30;99.90;;;;;;5031740;28;20040;-52
2023/01/21 00:49:51;;;;;;;43.47;28.23;;;-1.20;99.90;;;;;;5031791;28;20060;-50
2023/01/21 00:52:16;;;;;;;43.90;29.40;;;-1.20;99.90;;;;;;5031398;28;20025;-51
2023/01/21 00:54:42;;;;;;;40.00;26.73;;;-1.30;99.90;;;;;;5031162;28;20023;-51
2023/01/21 00:57:08;;;;;;;41.55;27.30;;;-1.30;99.90;;;;;;5031061;28;20064;-49
2023/01/21 00:59:33;;;;;;;44.63;27.25;;;-1.20;99.90;;;;;;5030186;28;20060;-55
2023/01/21 01:01:59;;;;;;;42.92;26.50;;;-1.20;99.90;;;;;;5031569;28;20021;-50
2023/01/21 01:04:25;;;;;;;41.38;26.40;;;-1.10;99.90;;;;;;5032098;28;20091;-52
2023/01/21 01:06:50;;;;;;;41.53;26.02;;;-1.10;99.90;;;;;;5031692;28;20423;-52
2023/01/21 01:09:16;;;;;;;43.08;28.15;;;-1.00;99.90;;;;;;5031932;28;20556;-53
2023/01/21 01:11:42;;;;;;;40.13;26.65;;;-1.00;99.90;;;;;;5031684;28;20033;-50
2023/01/21 01:14:08;;;;;;;37.25;25.88;;;-0.90;99.90;;;;;;5031891;28;20075;-51
2023/01/21 01:16:33;;;;;;;40.15;24.90;;;-0.90;99.90;;;;;;5031863;28;20022;-52
2023/01/21 01:18:59;;;;;;;42.72;27.63;;;-0.90;99.90;;;;;;5031712;28;20063;-53
2023/01/21 01:21:25;;;;;;;35.03;24.65;;;-0.80;99.90;;;;;;5031775;28;20028;-53
2023/01/21 01:23:52;;;;;;;39.60;25.27;;;-0.80;99.90;;;;;;5031584;28;20029;-52
2023/01/21 01:26:19;;;;;;;43.50;26.90;;;-0.70;99.90;;;;;;5031544;28;20029;-52
2023/01/21 01:28:45;;;;;;;38.38;24.70;;;-0.70;99.90;;;;;;5031580;28;20049;-57
2023/01/21 01:31:15;;;;;;;35.22;24.23;;;-0.60;99.90;;;;;;5031702;28;20463;-56
2023/01/21 01:33:46;;;;;;;42.67;26.05;;;-0.70;99.90;;;;;;5031458;28;20086;-53
2023/01/21 01:36:24;;;;;;;37.47;24.80;;;-0.70;99.90;;;;;;5030763;28;20028;-54
2023/01/21 01:38:51;;;;;;;34.08;23.38;;;-0.70;99.90;;;;;;5031503;28;20457;-52
2023/01/21 01:41:28;;;;;;;35.92;24.23;;;-0.70;99.90;;;;;;5031513;28;20037;-50
2023/01/21 01:43:59;;;;;;;42.40;25.95;;;-0.60;99.90;;;;;;5031348;28;20052;-52
2023/01/21 01:46:30;;;;;;;38.58;27.00;;;-0.70;99.90;;;;;;5031431;28;20411;-52
2023/01/21 01:49:05;;;;;;;42.42;27.90;;;-0.60;99.90;;;;;;5031316;28;20041;-53
2023/01/21 01:51:47;;;;;;;37.20;23.63;;;-0.60;99.90;;;;;;5031468;28;20056;-53
2023/01/21 01:54:18;;;;;;;36.15;24.05;;;-0.60;99.90;;;;;;5031324;28;20357;-54
2023/01/21 01:56:49;;;;;;;37.67;23.77;;;-0.60;99.90;;;;;;5031392;28;20436;-52
2023/01/21 01:59:15;;;;;;;41.33;26.25;;;-0.50;99.90;;;;;;5031342;28;20022;-52
2023/01/21 02:01:41;;;;;;;39.35;26.27;;;-0.60;99.90;;;;;;5031229;28;20033;-54
2023/01/21 02:04:11;;;;;;;37.05;23.90;;;-0.60;99.90;;;;;;5031324;28;20021;-52
2023/01/21 02:06:38;;;;;;;33.72;22.95;;;-0.50;99.90;;;;;;5031180;28;20059;-53
2023/01/21 02:09:04;;;;;;;38.03;23.38;;;-0.50;99.90;;;;;;5029913;28;20045;-51
2023/01/21 02:11:30;;;;;;;36.60;23.08;;;-0.50;99.90;;;;;;5031334;28;20022;-50
2023/01/21 02:13:58;;;;;;;37.10;24.60;;;-0.60;99.90;;;;;;5031030;28;20036;-52
2023/01/21 02:17:05;;;;;;;35.75;23.20;;;-0.60;99.90;;;;;;5031255;28;20025;-52
2023/01/21 02:20:18;;;;;;;38.15;24.52;;;-0.60;99.90;;;;;;4989345;28;20031;-53
2023/01/21 02:23:20;;;;;;;37.63;24.52;;;-0.60;99.90;;;;;;5026111;28;20041;-54
2023/01/21 02:26:25;;;;;;;38.85;26.20;;;-0.60;99.90;;;;;;5031066;28;20030;-50
2023/01/21 02:29:06;;;;;;;37.63;24.38;;;-0.70;99.90;;;;;;5030933;28;20042;-54
2023/01/21 02:31:49;;;;;;;40.10;23.92;;;-0.70;99.90;;;;;;5031147;28;20016;-52
2023/01/21 02:34:36;;;;;;;38.10;23.27;;;-0.70;99.90;;;;;;5031036;28;20026;-52
2023/01/21 02:37:31;;;;;;;38.30;23.00;;;-0.60;99.90;;;;;;5030900;28;20350;-50
2023/01/21 02:40:09;;;;;;;36.40;21.80;;;-0.70;99.90;;;;;;5029503;28;20069;-53
2023/01/21 02:42:37;;;;;;;35.22;22.58;;;-0.60;99.90;;;;;;5031232;28;20112;-50
2023/01/21 02:45:25;;;;;;;29.35;20.00;;;-0.60;99.90;;;;;;5031018;28;20022;-51
2023/01/21 02:48:04;;;;;;;34.17;21.17;;;-0.70;99.90;;;;;;5032868;28;20037;-52
2023/01/21 02:50:43;;;;;;;32.08;20.33;;;-0.70;99.90;;;;;;5034825;28;20075;-57
2023/01/21 02:53:31;;;;;;;30.50;19.48;;;-0.70;99.90;;;;;;5034371;28;20025;-54
2023/01/21 02:56:19;;;;;;;34.03;21.23;;;-0.70;99.90;;;;;;5034368;28;20026;-52
2023/01/21 02:58:50;;;;;;;29.73;19.65;;;-0.60;99.90;;;;;;5034409;28;20017;-53
2023/01/21 03:01:34;;;;;;;30.05;19.17;;;-0.60;99.90;;;;;;5034336;28;20025;-54
2023/01/21 03:04:24;;;;;;;30.33;19.38;;;-0.60;99.90;;;;;;5034078;28;20025;-54
2023/01/21 03:07:06;;;;;;;30.30;19.52;;;-0.50;99.90;;;;;;5034003;28;20029;-53
2023/01/21 03:09:33;;;;;;;26.50;17.88;;;-0.50;99.90;;;;;;5034342;28;20145;-50
2023/01/21 03:12:12;;;;;;;33.03;20.98;;;-0.50;99.90;;;;;;5034670;28;20694;-52
2023/01/21 03:17:51;;;;;;;32.07;19.70;;;-0.60;99.90;;;;;;5034428;28;20041;-52
2023/01/21 03:20:24;;;;;;;27.38;18.90;;;-0.60;99.90;;;;;;5034183;28;20400;-52
2023/01/21 03:23:00;;;;;;;30.45;19.70;;;-0.60;99.90;;;;;;5033678;28;20075;-55
2023/01/21 03:25:28;;;;;;;28.92;20.30;;;-0.60;99.90;;;;;;5034024;28;20033;-53
2023/01/21 03:27:56;;;;;;;33.78;20.73;;;-0.60;99.90;;;;;;5033664;28;20034;-54
2023/01/21 03:30:24;;;;;;;29.35;19.70;;;-0.60;99.90;;;;;;5033821;28;20034;-50
2023/01/21 03:32:52;;;;;;;31.67;20.67;;;-0.60;99.90;;;;;;5033423;28;20060;-57
2023/01/21 03:35:34;;;;;;;30.95;20.65;;;-0.60;99.90;;;;;;5032125;28;20449;-52
2023/01/21 03:38:13;;;;;;;31.23;21.02;;;-0.60;99.90;;;;;;5033253;28;20504;-52
2023/01/21 03:40:47;;;;;;;33.97;21.35;;;-0.70;99.90;;;;;;5033506;28;20421;-50
2023/01/21 03:43:13;;;;;;;31.58;19.98;;;-0.70;99.90;;;;;;5033535;28;20040;-53
2023/01/21 03:49:14;;;;;;;34.83;21.73;;;-0.70;99.90;;;;;;5033287;28;20044;-52
2023/01/21 03:51:46;;;;;;;35.60;23.27;;;-0.80;99.90;;;;;;5033120;28;20026;-53
2023/01/21 03:54:12;;;;;;;34.97;22.88;;;-0.80;99.90;;;;;;5033110;28;20055;-55
2023/01/21 03:56:37;;;;;;;32.17;21.90;;;-0.80;99.90;;;;;;5033086;28;20029;-52
2023/01/21 03:59:03;;;;;;;29.98;20.63;;;-0.80;99.90;;;;;;5032496;28;20021;-54
2023/01/21 04:01:28;;;;;;;31.60;21.08;;;-0.80;99.90;;;;;;5032773;28;20033;-54
2023/01/21 04:03:55;;;;;;;31.17;21.40;;;-0.80;99.90;;;;;;5032197;28;20030;-54
2023/01/21 04:06:22;;;;;;;34.72;21.48;;;-0.80;99.90;;;;;;5032742;28;20018;-51
2023/01/21 04:08:48;;;;;;;34.22;21.15;;;-0.80;99.90;;;;;;5032651;28;20056;-51
2023/01/21 04:11:14;;;;;;;35.42;22.80;;;-0.90;99.90;;;;;;5032775;28;20076;-55
2023/01/21 04:13:40;;;;;;;35.95;22.83;;;-0.90;99.90;;;;;;5032729;28;20087;-52
2023/01/21 04:16:06;;;;;;;35.47;22.83;;;-0.90;99.90;;;;;;5031996;28;20018;-51
2023/01/21 04:18:31;;;;;;;31.50;22.73;;;-0.80;99.90;;;;;;5032930;28;20072;-54
2023/01/21 04:20:57;;;;;;;32.55;22.30;;;-0.80;99.90;;;;;;5032332;28;20029;-52
2023/01/21 04:23:23;;;;;;;34.08;23.10;;;-0.80;99.90;;;;;;5032419;28;20361;-52
2023/01/21 04:25:50;;;;;;;32.97;22.25;;;-0.80;99.90;;;;;;5032666;28;20029;-53
2023/01/21 04:28:17;;;;;;;36.53;22.35;;;-0.90;99.90;;;;;;5032314;28;20108;-54
2023/01/21 04:30:42;;;;;;;36.22;21.58;;;-0.90;99.90;;;;;;5031947;28;20040;-53
2023/01/21 04:33:08;;;;;;;36.45;21.88;;;-0.90;99.90;;;;;;5032786;28;20025;-53
2023/01/21 04:35:37;;;;;;;33.70;22.15;;;-0.80;99.90;;;;;;5032031;28;20037;-57
2023/01/21 04:38:03;;;;;;;35.28;22.15;;;-0.90;99.90;;;;;;5032110;28;20024;-52
2023/01/21 04:40:28;;;;;;;34.58;22.60;;;-0.90;99.90;;;;;;5032614;28;20372;-51
2023/01/21 04:42:54;;;;;;;32.45;23.15;;;-0.90;99.90;;;;;;5032090;28;20457;-52
2023/01/21 04:45:20;;;;;;;29.27;20.67;;;-0.90;99.90;;;;;;5032187;28;20032;-50
2023/01/21 04:47:46;;;;;;;29.10;19.60;;;-0.90;99.90;;;;;;5032082;28;20392;-51
2023/01/21 04:50:12;;;;;;;34.10;21.80;;;-0.90;99.90;;;;;;5032176;28;20021;-55
2023/01/21 04:52:39;;;;;;;34.47;22.15;;;-0.90;99.90;;;;;;5032074;28;20026;-54
2023/01/21 04:55:05;;;;;;;32.28;21.75;;;-0.90;99.90;;;;;;5032155;28;20350;-53
2023/01/21 04:57:31;;;;;;;32.97;20.83;;;-0.90;99.90;;;;;;5031556;28;20029;-55
2023/01/21 04:59:56;;;;;;;34.45;21.95;;;-0.90;99.90;;;;;;5031780;28;20033;-52
2023/01/21 05:02:22;;;;;;;31.25;20.98;;;-0.90;99.90;;;;;;5030994;28;20029;-54
2023/01/21 05:04:48;;;;;;;33.40;21.52;;;-0.90;99.90;;;;;;5032899;28;20032;-54
2023/01/21 05:07:13;;;;;;;35.58;23.77;;;-0.90;99.90;;;;;;5031990;28;20464;-52
2023/01/21 05:09:39;;;;;;;33.97;22.45;;;-1.00;99.90;;;;;;5032740;28;20021;-53
2023/01/21 05:12:06;;;;;;;37.42;22.05;;;-0.90;99.90;;;;;;5032818;28;20013;-56
2023/01/21 05:14:32;;;;;;;30.45;20.67;;;-0.90;99.90;;;;;;5031954;28;20025;-53
2023/01/21 05:16:58;;;;;;;35.60;21.63;;;-0.90;99.90;;;;;;5032010;28;20037;-52
2023/01/21 05:19:24;;;;;;;32.38;21.88;;;-0.90;99.90;;;;;;5032112;28;20026;-53
2023/01/21 05:21:49;;;;;;;32.50;19.25;;;-0.90;99.90;;;;;;5030358;28;20087;-52
2023/01/21 05:24:15;;;;;;;31.58;21.17;;;-0.90;99.90;;;;;;5031827;28;20021;-53
2023/01/21 05:26:41;;;;;;;31.08;21.08;;;-0.90;99.90;;;;;;5031654;28;20026;-53
2023/01/21 05:29:06;;;;;;;36.20;21.38;;;-0.90;99.90;;;;;;5031780;28;20057;-54
2023/01/21 05:31:32;;;;;;;30.60;20.05;;;-0.80;99.90;;;;;;5031652;28;20030;-53
2023/01/21 05:33:57;;;;;;;28.58;19.88;;;-0.90;99.90;;;;;;5031359;28;20104;-54
2023/01/21 05:36:23;;;;;;;29.30;19.70;;;-0.90;99.90;;;;;;5031589;28;20033;-52
2023/01/21 05:38:49;;;;;;;42.50;24.02;;;-0.90;99.90;;;;;;5031448;28;20535;-55
2023/01/21 05:41:14;;;;;;;50.15;27.48;;;-0.90;99.90;;;;;;5031522;28;20611;-52
2023/01/21 05:43:40;;;;;;;29.55;19.10;;;-0.90;99.90;;;;;;5031451;28;20021;-54
2023/01/21 05:46:06;;;;;;;29.42;19.13;;;-0.80;99.90;;;;;;5031260;28;20424;-53
2023/01/21 05:48:31;;;;;;;34.13;20.25;;;-0.80;99.90;;;;;;5031649;28;20038;-52
2023/01/21 05:50:57;;;;;;;29.98;19.48;;;-0.90;99.90;;;;;;5031414;28;20025;-54
2023/01/21 05:53:23;;;;;;;22.90;14.63;;;-0.90;99.90;;;;;;5031399;28;20025;-51
2023/01/21 05:55:54;;;;;;;29.25;16.17;;;-1.00;99.90;;;;;;5031452;28;20041;-50
2023/01/21 05:58:20;;;;;;;20.45;14.40;;;-1.00;99.90;;;;;;5031487;28;20022;-54
2023/01/21 06:00:47;;;;;;;22.95;14.80;;;-1.00;99.90;;;;;;5031164;28;20396;-53
2023/01/21 06:03:16;;;;;;;26.15;15.38;;;-1.00;99.90;;;;;;5031406;28;20380;-53
2023/01/21 06:05:42;;;;;;;25.52;15.48;;;-1.00;99.90;;;;;;5031219;28;20077;-50
2023/01/21 06:08:09;;;;;;;25.52;16.83;;;-1.00;99.90;;;;;;5031660;28;20419;-50
2023/01/21 06:10:35;;;;;;;23.48;14.30;;;-1.00;99.90;;;;;;5031437;28;20084;-50
2023/01/21 06:13:00;;;;;;;24.60;15.95;;;-0.90;99.90;;;;;;5031102;28;20022;-53
2023/01/21 06:15:26;;;;;;;23.02;15.32;;;-0.90;99.90;;;;;;5031172;28;20116;-52
2023/01/21 06:17:52;;;;;;;21.23;13.20;;;-0.80;99.90;;;;;;5031139;28;20109;-50
2023/01/21 06:20:18;;;;;;;24.17;13.07;;;-0.90;99.90;;;;;;5031238;28;20075;-53
2023/01/21 06:22:44;;;;;;;22.75;12.98;;;-1.00;99.90;;;;;;5033269;28;20029;-54
2023/01/21 06:25:10;;;;;;;23.48;14.05;;;-1.00;99.90;;;;;;5035052;28;20061;-53
2023/01/21 06:27:37;;;;;;;26.92;14.95;;;-1.00;99.90;;;;;;5035121;28;20633;-54
2023/01/21 06:30:05;;;;;;;22.85;14.68;;;-1.00;99.90;;;;;;5034874;28;20017;-50
2023/01/21 06:32:31;;;;;;;23.98;14.57;;;-1.00;99.90;;;;;;5034771;28;20112;-50
2023/01/21 06:34:56;;;;;;;22.90;14.52;;;-0.90;99.90;;;;;;5034757;28;20108;-51
2023/01/21 06:37:22;;;;;;;25.50;16.10;;;-0.90;99.90;;;;;;5034852;28;20104;-50
2023/01/21 06:39:47;;;;;;;20.83;14.43;;;-1.00;99.90;;;;;;5034657;28;20445;-54
2023/01/21 06:42:13;;;;;;;28.38;16.58;;;-1.00;99.90;;;;;;5034728;28;20053;-51
2023/01/21 06:44:39;;;;;;;27.23;16.13;;;-1.00;99.90;;;;;;5033248;28;20116;-52
2023/01/21 06:47:04;;;;;;;29.95;16.67;;;-0.90;99.90;;;;;;5034884;28;20382;-51
2023/01/21 06:49:30;;;;;;;32.85;17.40;;;-0.90;99.90;;;;;;5034701;28;20025;-50
2023/01/21 06:51:56;;;;;;;24.35;14.88;;;-0.90;99.90;;;;;;5034451;28;20033;-51
2023/01/21 06:54:21;;;;;;;23.23;13.90;;;-0.90;99.90;;;;;;5034375;28;20488;-55
2023/01/21 06:56:47;;;;;;;20.58;13.85;;;-0.90;99.90;;;;;;5034320;28;20384;-52
2023/01/21 06:59:13;;;;;;;24.60;15.77;;;-0.90;99.90;;;;;;5034344;28;20096;-52
2023/01/21 07:02:11;;;;;;;20.55;13.52;;;-0.90;99.90;;;;;;5034413;28;20014;-54
2023/01/21 07:04:36;;;;;;;20.95;14.02;;;-0.80;99.90;;;;;;5034423;28;20523;-53
2023/01/21 07:07:02;;;;;;;23.95;13.70;;;-0.80;99.90;;;;;;5034111;28;20021;-58
2023/01/21 07:09:28;;;;;;;20.08;15.18;;;-0.80;99.90;;;;;;5034361;28;20026;-50
2023/01/21 07:11:54;;;;;;;25.33;15.30;;;-0.80;99.90;;;;;;5034026;28;20025;-51
2023/01/21 07:14:20;;;;;;;29.55;16.23;;;-0.90;99.90;;;;;;5034501;28;20025;-56
2023/01/21 07:16:45;;;;;;;22.40;15.57;;;-0.80;99.90;;;;;;5034247;28;20659;-53
2023/01/21 07:19:11;;;;;;;23.13;15.95;;;-0.80;99.90;;;;;;5033153;28;20079;-54
2023/01/21 07:21:40;;;;;;;25.88;15.10;;;-0.90;99.90;;;;;;5033051;28;20025;-55
2023/01/21 07:24:06;;;;;;;25.42;15.05;;;-0.80;99.90;;;;;;5032824;28;20389;-50
2023/01/21 07:26:35;;;;;;;27.02;16.00;;;-0.80;99.90;;;;;;5033394;28;20377;-51
2023/01/21 07:29:01;;;;;;;25.08;15.27;;;-0.80;99.90;;;;;;5033131;28;20537;-50
2023/01/21 07:31:26;;;;;;;24.67;15.88;;;-0.80;99.90;;;;;;5032827;28;20026;-50
2023/01/21 07:33:52;;;;;;;20.83;15.52;;;-0.70;99.90;;;;;;5031470;28;20414;-51
2023/01/21 07:36:18;;;;;;;22.27;14.35;;;-0.70;99.90;;;;;;5033201;28;20358;-53
2023/01/21 07:38:43;;;;;;;25.42;16.92;;;-0.70;99.90;;;;;;5033764;28;20021;-53
2023/01/21 07:41:09;;;;;;;28.67;17.60;;;-0.70;99.90;;;;;;5033547;28;20017;-53
2023/01/21 07:43:34;;;;;;;30.27;18.13;;;-0.50;99.90;;;;;;5033424;28;20053;-51
2023/01/21 07:46:00;;;;;;;21.02;15.27;;;-0.60;99.90;;;;;;5033146;28;20161;-53
2023/01/21 07:48:26;;;;;;;28.98;18.27;;;-0.60;99.90;;;;;;5033599;28;20075;-50
2023/01/21 07:50:55;;;;;;;27.65;17.40;;;-0.60;99.90;;;;;;5033545;28;20032;-55
2023/01/21 07:53:20;;;;;;;29.33;19.05;;;-0.50;99.90;;;;;;5033233;28;20433;-52
2023/01/21 07:55:46;;;;;;;44.03;23.13;;;-0.30;99.90;;;;;;5033438;28;20104;-54
2023/01/21 07:58:11;;;;;;;31.58;16.35;;;-0.30;99.90;;;;;;5032887;28;20013;-57
2023/01/21 08:00:37;;;;;;;32.45;18.42;;;-0.30;99.90;;;;;;5033847;28;20033;-56
2023/01/21 08:03:03;;;;;;;25.67;18.65;;;-0.30;99.90;;;;;;5033129;28;20034;-55
2023/01/21 08:05:28;;;;;;;21.05;14.07;;;-0.30;99.90;;;;;;5033180;28;20025;-53
2023/01/21 08:07:57;;;;;;;22.95;14.73;;;-0.40;99.90;;;;;;5032983;28;20030;-58
2023/01/21 08:10:22;;;;;;;21.88;14.93;;;-0.30;99.90;;;;;;5033021;28;20048;-55
2023/01/21 08:12:48;;;;;;;22.98;14.75;;;-0.40;99.90;;;;;;5032794;28;20057;-62
2023/01/21 08:15:13;;;;;;;24.85;14.63;;;-0.30;99.90;;;;;;5033274;28;20032;-53
2023/01/21 08:17:41;;;;;;;22.88;14.27;;;-0.30;99.90;;;;;;5031915;28;20025;-54
2023/01/21 08:20:08;;;;;;;21.15;14.90;;;-0.20;99.90;;;;;;5032771;28;20021;-56
2023/01/21 08:22:35;;;;;;;26.85;15.50;;;-0.20;99.90;;;;;;5032664;28;20025;-56
2023/01/21 08:25:01;;;;;;;26.98;15.25;;;-0.10;99.90;;;;;;5032540;28;20431;-56
2023/01/21 08:27:27;;;;;;;28.45;14.52;;;0.00;99.90;;;;;;5032683;28;20028;-54
2023/01/21 08:29:52;;;;;;;27.88;16.60;;;0.00;99.90;;;;;;5032523;28;20401;-57
2023/01/21 08:32:18;;;;;;;19.08;14.02;;;0.00;99.90;;;;;;5032487;28;20033;-57
2023/01/21 08:34:44;;;;;;;21.75;14.05;;;0.00;99.90;;;;;;5032231;28;20032;-57
2023/01/21 08:37:09;;;;;;;21.17;15.05;;;0.10;99.90;;;;;;5032629;28;20032;-59
2023/01/21 08:39:35;;;;;;;19.63;13.27;;;0.20;99.90;;;;;;5032297;28;20508;-53
2023/01/21 08:42:01;;;;;;;20.88;13.10;;;0.10;99.90;;;;;;5032551;28;20100;-58
2023/01/21 08:44:26;;;;;;;25.85;14.57;;;0.10;99.90;;;;;;5030882;28;20032;-58
2023/01/21 08:46:52;;;;;;;18.83;13.32;;;0.20;99.90;;;;;;5032147;28;20045;-56
2023/01/21 08:49:18;;;;;;;22.40;14.35;;;0.20;99.90;;;;;;5032475;28;20033;-57
2023/01/21 08:51:44;;;;;;;16.75;13.60;;;0.40;99.90;;;;;;5031960;28;20038;-58
2023/01/21 08:54:09;;;;;;;20.02;12.90;;;0.40;99.90;;;;;;5031988;28;20111;-58
2023/01/21 08:56:35;;;;;;;19.10;12.73;;;0.40;99.90;;;;;;5032375;28;20025;-57
2023/01/21 08:59:01;;;;;;;22.50;12.65;;;0.50;99.90;;;;;;5032037;28;20025;-51
2023/01/21 09:01:28;;;;;;;23.63;14.43;;;0.70;99.90;;;;;;5032157;28;20028;-55
2023/01/21 09:03:58;;;;;;;25.75;13.32;;;0.60;99.90;;;;;;5031864;28;20112;-54
2023/01/21 09:06:25;;;;;;;15.82;11.20;;;0.60;99.90;;;;;;5031953;28;20026;-55
2023/01/21 09:08:51;;;;;;;15.82;11.95;;;0.70;99.90;;;;;;5031871;28;20060;-53
2023/01/21 09:11:17;;;;;;;17.85;12.07;;;0.80;99.90;;;;;;5032042;28;20061;-57
2023/01/21 09:13:45;;;;;;;19.85;12.63;;;0.80;99.90;;;;;;5031635;28;20029;-55
2023/01/21 09:16:21;;;;;;;17.25;11.73;;;0.90;99.90;;;;;;5031925;28;20350;-55
2023/01/21 09:18:47;;;;;;;24.33;13.32;;;1.00;99.90;;;;;;5031622;28;20053;-54
2023/01/21 09:21:14;;;;;;;15.27;11.18;;;1.10;99.90;;;;;;5030516;28;20021;-55
2023/01/21 09:23:40;;;;;;;15.82;11.55;;;1.20;99.90;;;;;;5031536;28;20427;-54
2023/01/21 09:26:12;;;;;;;16.63;11.07;;;1.00;99.90;;;;;;5031609;28;20030;-56
2023/01/21 09:28:41;;;;;;;16.80;10.90;;;0.90;99.90;;;;;;5031679;28;20525;-57
2023/01/21 09:31:12;;;;;;;14.40;10.80;;;1.20;99.90;;;;;;5031619;28;20075;-57
2023/01/21 09:33:40;;;;;;;20.95;12.20;;;1.10;99.90;;;;;;5031456;28;20025;-56
2023/01/21 09:36:10;;;;;;;15.45;10.27;;;1.10;99.90;;;;;;5031638;28;20056;-53
2023/01/21 09:38:43;;;;;;;16.13;11.10;;;1.20;99.90;;;;;;5031670;28;20021;-54
2023/01/21 09:41:21;;;;;;;;;;;1.10;99.90;;;;;;5032025;28;20025;-54
2023/01/21 09:43:58;;;;;;;15.93;11.50;;;1.10;99.90;;;;;;5031396;28;20158;-50
2023/01/21 09:46:41;;;;;;;15.15;10.75;;;1.20;99.90;;;;;;5031405;28;20041;-52
2023/01/21 09:49:21;;;;;;;16.02;12.98;;;1.20;99.90;;;;;;5031426;28;20361;-53
2023/01/21 09:51:58;;;;;;;21.00;12.52;;;1.40;99.90;;;;;;5031502;28;20033;-52
2023/01/21 09:54:25;;;;;;;14.50;11.02;;;1.20;99.90;;;;;;5031342;28;20022;-54
2023/01/21 09:56:56;;;;;;;19.52;12.18;;;1.20;99.90;;;;;;5031821;28;20104;-51
2023/01/21 09:59:45;;;;;;;15.45;11.57;;;1.10;99.90;;;;;;5035785;28;20013;-55
2023/01/21 10:02:45;;;;;;;17.25;11.55;;;1.00;99.90;;;;;;5034655;28;20028;-55
2023/01/21 10:05:10;;;;;;;16.52;11.68;;;1.10;99.90;;;;;;5034106;28;20097;-52
2023/01/21 10:08:05;;;;;;;17.65;12.40;;;0.80;99.90;;;;;;5035139;28;20053;-54
2023/01/21 10:11:09;;;;;;;19.27;13.48;;;0.60;99.90;;;;;;5032060;28;20037;-56
2023/01/21 10:14:03;;;;;;;18.02;11.80;;;0.70;99.90;;;;;;5030891;28;20041;-54
2023/01/21 10:17:07;;;;;;;21.90;14.63;;;0.80;99.90;;;;;;5035293;28;20021;-56
2023/01/21 10:19:44;;;;;;;19.67;12.77;;;0.70;99.90;;;;;;5035597;28;20036;-54
2023/01/21 10:22:20;;;;;;;22.08;14.85;;;1.00;99.90;;;;;;5034741;28;20465;-54
2023/01/21 10:25:05;;;;;;;17.52;12.55;;;1.00;99.90;;;;;;5034918;28;20026;-54
2023/01/21 10:27:34;;;;;;;19.83;12.48;;;0.90;99.90;;;;;;5034843;28;20061;-55
2023/01/21 10:30:20;;;;;;;22.08;14.38;;;0.70;99.90;;;;;;5034645;28;20093;-55
2023/01/21 10:32:49;;;;;;;18.95;13.13;;;0.90;99.90;;;;;;5034493;28;20026;-55
2023/01/21 10:35:20;;;;;;;17.60;12.20;;;1.00;99.90;;;;;;5034528;28;20095;-55
2023/01/21 10:38:10;;;;;;;16.33;11.40;;;0.90;99.90;;;;;;5032443;28;20461;-55
2023/01/21 10:40:45;;;;;;;17.90;12.55;;;1.00;99.90;;;;;;5033612;28;20029;-55
2023/01/21 10:46:46;;;;;;;16.13;11.52;;;1.30;99.90;;;;;;5014690;28;20041;-52
2023/01/21 10:49:33;;;;;;;15.55;10.43;;;1.50;99.90;;;;;;5014638;28;20028;-53
2023/01/21 10:52:21;;;;;;;18.88;12.55;;;1.60;99.90;;;;;;5017627;28;20112;-54
2023/01/21 10:54:55;;;;;;;22.83;11.63;;;1.40;99.90;;;;;;5033993;28;20037;-53
2023/01/21 10:57:28;;;;;;;22.83;16.73;;;1.50;99.90;;;;;;5034717;28;20676;-57
2023/01/21 10:59:57;;;;;;;18.42;11.48;;;1.70;99.90;;;;;;5034291;28;20101;-54
2023/01/21 11:02:31;;;;;;;15.50;12.18;;;1.60;99.90;;;;;;5034171;28;20418;-55
2023/01/21 11:05:02;;;;;;;18.67;12.07;;;1.70;99.90;;;;;;5034208;28;20029;-54
2023/01/21 11:07:33;;;;;;;17.65;11.27;;;1.60;99.90;;;;;;5034100;28;20044;-54
2023/01/21 11:10:01;;;;;;;18.27;12.05;;;1.60;99.90;;;;;;5033900;28;20044;-52
2023/01/21 11:12:29;;;;;;;19.30;14.55;;;1.50;99.90;;;;;;5034046;28;20021;-54
2023/01/21 11:15:01;;;;;;;14.70;11.50;;;1.20;99.90;;;;;;5033799;28;20024;-54
2023/01/21 11:17:34;;;;;;;16.73;11.70;;;1.20;99.90;;;;;;5034000;28;20452;-52
2023/01/21 11:20:02;;;;;;;15.98;11.80;;;1.10;99.90;;;;;;5033773;28;20017;-56
2023/01/21 11:22:32;;;;;;;17.60;11.55;;;0.90;99.90;;;;;;5034007;28;20029;-55
2023/01/21 11:24:59;;;;;;;13.70;12.05;;;1.00;99.90;;;;;;5033669;28;20034;-54
2023/01/21 11:27:27;;;;;;;15.25;11.23;;;1.10;99.90;;;;;;5034087;28;20021;-53
2023/01/21 11:29:53;;;;;;;16.67;11.07;;;1.00;99.90;;;;;;5033465;28;20037;-56
2023/01/21 11:32:24;;;;;;;15.07;10.55;;;1.20;99.90;;;;;;5033426;28;20080;-53
2023/01/21 11:35:19;;;;;;;17.10;12.38;;;1.20;99.90;;;;;;5033302;28;20032;-53
2023/01/21 11:37:45;;;;;;;15.27;10.57;;;1.20;99.90;;;;;;5033882;28;20017;-51
2023/01/21 11:40:21;;;;;;;17.52;12.25;;;1.00;99.90;;;;;;5033437;28;20381;-54
2023/01/21 11:42:49;;;;;;;17.63;11.32;;;1.10;99.90;;;;;;5033518;28;20064;-53
2023/01/21 11:45:31;;;;;;;19.20;13.70;;;1.30;99.90;;;;;;5033460;28;20536;-57
2023/01/21 11:47:58;;;;;;;15.88;12.27;;;1.50;99.90;;;;;;5033244;28;20761;-53
2023/01/21 11:50:36;;;;;;;17.98;11.10;;;1.50;99.90;;;;;;5033335;28;20353;-56
2023/01/21 11:53:11;;;;;;;15.60;10.95;;;1.80;99.90;;;;;;5033244;28;20029;-56
2023/01/21 11:55:43;;;;;;;16.55;11.07;;;1.70;99.90;;;;;;5033266;28;20017;-56
2023/01/21 11:58:35;;;;;;;24.83;13.60;;;1.80;99.90;;;;;;5033398;28;20034;-54
2023/01/21 12:01:06;;;;;;;17.58;11.43;;;1.80;99.90;;;;;;5033133;28;20468;-56
2023/01/21 12:03:41;;;;;;;32.97;18.15;;;1.70;99.90;;;;;;5033075;28;20104;-54
2023/01/21 12:06:08;;;;;;;33.60;15.90;;;1.50;99.90;;;;;;5033153;28;20595;-55
2023/01/21 12:08:36;;;;;;;17.75;12.35;;;1.40;99.90;;;;;;5033044;28;20033;-57
2023/01/21 12:11:05;;;;;;;18.52;13.00;;;1.40;99.90;;;;;;5032924;28;20492;-56
2023/01/21 12:13:37;;;;;;;20.55;12.05;;;1.30;99.90;;;;;;5032941;28;20457;-52
2023/01/21 12:16:34;;;;;;;24.30;14.07;;;1.60;99.90;;;;;;5032634;28;20028;-56
2023/01/21 12:19:33;;;;;;;13.95;10.38;;;1.60;99.90;;;;;;5032517;28;20036;-55
2023/01/21 12:21:59;;;;;;;34.45;17.75;;;1.80;99.90;;;;;;5032601;28;20100;-56
2023/01/21 12:24:52;;;;;;;14.90;11.10;;;1.70;99.90;;;;;;5032497;28;20536;-55
2023/01/21 12:27:29;;;;;;;20.83;13.20;;;1.40;99.90;;;;;;5032840;28;20517;-53
2023/01/21 12:30:05;;;;;;;21.92;14.18;;;1.40;99.90;;;;;;5031033;28;20040;-57
2023/01/21 12:33:00;;;;;;;20.13;13.50;;;1.10;99.90;;;;;;5032445;28;20026;-55
2023/01/21 12:35:32;;;;;;;19.48;12.02;;;1.10;99.90;;;;;;5023650;28;20040;-55
2023/01/21 12:38:18;;;;;;;15.65;11.02;;;1.10;99.90;;;;;;5032336;28;20085;-55
2023/01/21 12:40:58;;;;;;;14.65;10.60;;;1.00;99.90;;;;;;5032244;28;20397;-56
2023/01/21 12:43:38;;;;;;;14.75;11.18;;;0.70;99.90;;;;;;5032436;28;20084;-50
2023/01/21 12:46:15;;;;;;;20.00;13.70;;;0.40;99.90;;;;;;5032053;28;20072;-56
2023/01/21 12:48:47;;;;;;;17.30;10.05;;;0.40;99.90;;;;;;5032205;28;20056;-56
2023/01/21 12:51:42;;;;;;;16.60;10.95;;;0.40;99.90;;;;;;5031808;28;20033;-56
2023/01/21 12:54:07;;;;;;;16.70;11.82;;;0.50;99.90;;;;;;5032150;28;20025;-55
2023/01/21 12:56:57;;;;;;;14.63;11.70;;;0.50;99.90;;;;;;5030624;28;20017;-54
2023/01/21 12:59:51;;;;;;;15.07;10.50;;;0.70;99.90;;;;;;5032026;28;20029;-54